Time;durP1;ratioP1;P1;durP2;ratioP2;P2;SDS_P1;SDS_P2;PMS_P1;PMS_P2;Temp;Humidity;BMP_temperature;BMP_pressure;BME280_temperature;BME280_humidity;BME280_pressure;Samples;Min_cycle;Max_cycle;Signal;HPM_P1;HPM_P2
2023/12/19 00:00:59;;;;;;;26.77;3.90;;;;;;;;;;5070617;28;20108;-42
2023/12/19 00:03:26;;;;;;;43.72;3.97;;;;;;;;;;5068703;28;20067;-43
2023/12/19 00:05:53;;;;;;;25.85;3.80;;;;;;;;;;5062711;28;20032;-43
2023/12/19 00:08:20;;;;;;;35.40;4.20;;;;;;;;;;5050586;28;20032;-39
2023/12/19 00:10:47;;;;;;;21.58;3.40;;;;;;;;;;5069942;28;20044;-42
2023/12/19 00:13:14;;;;;;;25.88;3.65;;;;;;;;;;5068433;28;20557;-38
2023/12/19 00:15:41;;;;;;;24.65;3.45;;;;;;;;;;5069780;28;20032;-43
2023/12/19 00:18:08;;;;;;;21.98;2.95;;;;;;;;;;5070432;28;20121;-44
2023/12/19 00:20:35;;;;;;;20.90;3.25;;;;;;;;;;5074779;28;20039;-44
2023/12/19 00:23:02;;;;;;;29.15;3.70;;;;;;;;;;5072450;28;20584;-41
2023/12/19 00:25:30;;;;;;;31.80;3.50;;;;;;;;;;5070979;28;20030;-42
2023/12/19 00:27:58;;;;;;;21.05;3.30;;;;;;;;;;5074175;28;20640;-33
2023/12/19 00:30:26;;;;;;;24.50;3.67;;;;;;;;;;5073880;28;20697;-36
2023/12/19 00:32:53;;;;;;;26.77;3.67;;;;;;;;;;5073060;28;20386;-45
2023/12/19 00:35:20;;;;;;;25.08;3.88;;;;;;;;;;5068460;28;20028;-40
2023/12/19 00:37:47;;;;;;;32.50;4.60;;;;;;;;;;5068079;28;20157;-34
2023/12/19 00:40:14;;;;;;;35.55;4.30;;;;;;;;;;5070219;28;20517;-41
2023/12/19 00:42:42;;;;;;;22.05;3.40;;;;;;;;;;5067863;28;20031;-43
2023/12/19 00:45:09;;;;;;;27.77;3.67;;;;;;;;;;5068068;28;20028;-45
2023/12/19 00:47:39;;;;;;;35.25;4.78;;;;;;;;;;5071041;28;20043;-45
2023/12/19 00:50:09;;;;;;;32.22;3.75;;;;;;;;;;5070372;28;20055;-44
2023/12/19 00:52:36;;;;;;;21.00;3.47;;;;;;;;;;5063693;28;20090;-39
2023/12/19 00:55:03;;;;;;;27.95;3.72;;;;;;;;;;5069727;28;20028;-37
2023/12/19 00:57:30;;;;;;;24.20;3.70;;;;;;;;;;5071253;28;20025;-36
2023/12/19 00:59:57;;;;;;;27.92;3.60;;;;;;;;;;5066351;28;20028;-35
2023/12/19 01:02:27;;;;;;;19.70;3.42;;;;;;;;;;5073339;28;20115;-36
2023/12/19 01:04:57;;;;;;;22.75;3.10;;;;;;;;;;5055177;28;20461;-36
2023/12/19 01:07:24;;;;;;;13.65;2.60;;;;;;;;;;5060934;28;20103;-37
2023/12/19 01:09:52;;;;;;;16.83;2.58;;;;;;;;;;5073997;28;20068;-37
2023/12/19 01:12:21;;;;;;;21.05;3.10;;;;;;;;;;5073359;28;20035;-37
2023/12/19 01:14:48;;;;;;;23.48;3.55;;;;;;;;;;5073757;28;20458;-35
2023/12/19 01:17:15;;;;;;;18.83;3.05;;;;;;;;;;5071058;28;20109;-35
2023/12/19 01:19:42;;;;;;;16.45;2.65;;;;;;;;;;5069717;28;20033;-36
2023/12/19 01:22:09;;;;;;;24.08;3.03;;;;;;;;;;5069948;28;20025;-35
2023/12/19 01:24:39;;;;;;;16.20;2.75;;;;;;;;;;5073782;28;20100;-35
2023/12/19 01:27:07;;;;;;;14.70;3.28;;;;;;;;;;5054724;28;20390;-35
2023/12/19 01:29:36;;;;;;;19.50;3.50;;;;;;;;;;5072722;28;20035;-36
2023/12/19 01:32:03;;;;;;;18.42;3.10;;;;;;;;;;5073210;28;20037;-36
2023/12/19 01:34:32;;;;;;;19.98;3.45;;;;;;;;;;5073030;28;20032;-35
2023/12/19 01:36:59;;;;;;;13.15;3.13;;;;;;;;;;5072618;28;20028;-35
2023/12/19 01:39:26;;;;;;;17.65;3.08;;;;;;;;;;5072640;28;20107;-35
2023/12/19 01:41:53;;;;;;;18.58;3.10;;;;;;;;;;5073253;28;20028;-35
2023/12/19 01:44:20;;;;;;;16.20;2.92;;;;;;;;;;5071857;28;20032;-35
2023/12/19 01:46:47;;;;;;;17.40;3.55;;;;;;;;;;5069618;28;20040;-35
2023/12/19 01:49:15;;;;;;;18.20;2.95;;;;;;;;;;5072770;28;20033;-35
2023/12/19 01:51:42;;;;;;;17.42;2.88;;;;;;;;;;5054613;28;20127;-35
2023/12/19 01:54:09;;;;;;;15.60;2.90;;;;;;;;;;5072909;28;20048;-35
2023/12/19 01:56:36;;;;;;;14.38;3.03;;;;;;;;;;5072525;28;20029;-35
2023/12/19 01:59:04;;;;;;;19.67;2.83;;;;;;;;;;5072333;28;20031;-35
2023/12/19 02:01:32;;;;;;;13.40;2.47;;;;;;;;;;5072056;28;20039;-35
2023/12/19 02:03:59;;;;;;;15.15;2.67;;;;;;;;;;5072678;28;20083;-35
2023/12/19 02:06:26;;;;;;;13.35;2.40;;;;;;;;;;5071348;28;20043;-36
2023/12/19 02:08:53;;;;;;;11.80;2.17;;;;;;;;;;5067203;28;20422;-34
2023/12/19 02:11:20;;;;;;;16.55;3.00;;;;;;;;;;5071152;28;20099;-34
2023/12/19 02:13:48;;;;;;;13.88;3.30;;;;;;;;;;5072606;28;20020;-35
2023/12/19 02:16:15;;;;;;;13.32;2.30;;;;;;;;;;5071689;28;20112;-35
2023/12/19 02:18:43;;;;;;;16.77;2.75;;;;;;;;;;5069175;28;20035;-35
2023/12/19 02:21:10;;;;;;;19.02;3.10;;;;;;;;;;5072422;28;20044;-36
2023/12/19 02:23:37;;;;;;;16.77;2.60;;;;;;;;;;5072003;28;20056;-36
2023/12/19 02:26:05;;;;;;;11.43;2.10;;;;;;;;;;5072081;28;20129;-35
2023/12/19 02:28:32;;;;;;;14.82;2.35;;;;;;;;;;5053452;28;20046;-35
2023/12/19 02:30:59;;;;;;;14.45;2.20;;;;;;;;;;5070148;28;20024;-36
2023/12/19 02:33:26;;;;;;;9.57;2.38;;;;;;;;;;5070993;28;20028;-34
2023/12/19 02:35:53;;;;;;;14.88;2.50;;;;;;;;;;5061265;28;20027;-34
2023/12/19 02:38:20;;;;;;;16.33;3.03;;;;;;;;;;5071354;28;20025;-34
2023/12/19 02:40:48;;;;;;;13.98;2.00;;;;;;;;;;5067881;28;20056;-34
2023/12/19 02:43:15;;;;;;;10.75;2.30;;;;;;;;;;5071477;28;20402;-33
2023/12/19 02:45:42;;;;;;;9.65;1.90;;;;;;;;;;5071686;28;20021;-33
2023/12/19 02:48:09;;;;;;;12.82;2.35;;;;;;;;;;5071771;28;20471;-33
2023/12/19 02:50:36;;;;;;;9.50;1.80;;;;;;;;;;5071336;28;20498;-34
2023/12/19 02:53:03;;;;;;;10.82;2.03;;;;;;;;;;5071622;28;20104;-32
2023/12/19 02:55:30;;;;;;;10.95;2.58;;;;;;;;;;5071025;28;20035;-35
2023/12/19 02:57:57;;;;;;;7.18;1.95;;;;;;;;;;5071780;28;20036;-35
2023/12/19 03:00:24;;;;;;;12.52;1.90;;;;;;;;;;5071388;28;20023;-35
2023/12/19 03:02:51;;;;;;;10.25;1.90;;;;;;;;;;5071154;28;20048;-34
2023/12/19 03:05:19;;;;;;;7.97;1.40;;;;;;;;;;5071031;28;20532;-35
2023/12/19 03:07:46;;;;;;;11.05;2.00;;;;;;;;;;5071475;28;20406;-35
2023/12/19 03:10:13;;;;;;;9.30;2.28;;;;;;;;;;5071073;28;20028;-35
2023/12/19 03:12:40;;;;;;;6.82;1.70;;;;;;;;;;5071041;28;20149;-34
2023/12/19 03:15:08;;;;;;;12.00;2.35;;;;;;;;;;5070941;28;20028;-35
2023/12/19 03:17:35;;;;;;;14.70;2.55;;;;;;;;;;5059730;28;20485;-36
2023/12/19 03:20:02;;;;;;;8.40;2.05;;;;;;;;;;5067729;28;20433;-36
2023/12/19 03:22:29;;;;;;;12.43;1.60;;;;;;;;;;5070961;28;20021;-36
2023/12/19 03:24:59;;;;;;;6.55;1.40;;;;;;;;;;5070769;28;20029;-37
2023/12/19 03:27:26;;;;;;;9.65;1.90;;;;;;;;;;5071415;28;20032;-36
2023/12/19 03:29:53;;;;;;;8.63;1.77;;;;;;;;;;5070951;28;20107;-36
2023/12/19 03:32:19;;;;;;;9.68;1.80;;;;;;;;;;5071523;28;20020;-36
2023/12/19 03:34:47;;;;;;;8.75;1.70;;;;;;;;;;5071262;28;20092;-35
2023/12/19 03:37:14;;;;;;;6.93;1.80;;;;;;;;;;5070898;28;20024;-35
2023/12/19 03:39:41;;;;;;;11.88;2.20;;;;;;;;;;5052147;28;20572;-33
2023/12/19 03:42:08;;;;;;;11.82;2.17;;;;;;;;;;5053086;28;20470;-36
2023/12/19 03:44:35;;;;;;;6.07;1.67;;;;;;;;;;5062780;28;20076;-33
2023/12/19 03:47:02;;;;;;;11.45;2.25;;;;;;;;;;5053222;28;20024;-32
2023/12/19 03:49:29;;;;;;;8.65;2.28;;;;;;;;;;5071025;28;20509;-34
2023/12/19 03:51:56;;;;;;;9.20;1.80;;;;;;;;;;5071221;28;20028;-33
2023/12/19 03:54:24;;;;;;;8.82;2.25;;;;;;;;;;5052895;28;20486;-32
2023/12/19 03:56:53;;;;;;;10.07;1.98;;;;;;;;;;5071281;28;20028;-33
2023/12/19 03:59:20;;;;;;;4.65;1.77;;;;;;;;;;5070839;28;20056;-33
2023/12/19 04:01:48;;;;;;;6.57;1.83;;;;;;;;;;5051860;28;20442;-33
2023/12/19 04:04:17;;;;;;;9.57;1.80;;;;;;;;;;5068956;28;20086;-33
2023/12/19 04:06:44;;;;;;;9.55;1.90;;;;;;;;;;5070821;28;20021;-33
2023/12/19 04:09:11;;;;;;;5.50;1.90;;;;;;;;;;5070997;28;20025;-34
2023/12/19 04:11:46;;;;;;;7.72;1.95;;;;;;;;;;5070541;28;20025;-42
2023/12/19 04:14:14;;;;;;;8.30;1.90;;;;;;;;;;5070912;28;20029;-37
2023/12/19 04:16:41;;;;;;;8.00;2.25;;;;;;;;;;5059899;28;20024;-37
2023/12/19 04:19:08;;;;;;;8.00;2.20;;;;;;;;;;5033059;28;20075;-44
2023/12/19 04:21:36;;;;;;;8.45;2.10;;;;;;;;;;5050735;28;20025;-36
2023/12/19 04:24:05;;;;;;;7.85;1.95;;;;;;;;;;5050900;28;20033;-35
2023/12/19 04:26:32;;;;;;;6.38;2.05;;;;;;;;;;5063424;28;20043;-43
2023/12/19 04:28:59;;;;;;;9.32;1.85;;;;;;;;;;5070990;28;20120;-40
2023/12/19 04:31:26;;;;;;;5.30;1.70;;;;;;;;;;5070740;28;20035;-42
2023/12/19 04:33:53;;;;;;;6.20;1.80;;;;;;;;;;5069959;28;20149;-40
2023/12/19 04:36:20;;;;;;;11.00;2.05;;;;;;;;;;5070230;28;20119;-41
2023/12/19 04:38:47;;;;;;;6.78;2.45;;;;;;;;;;5070871;28;20020;-39
2023/12/19 04:41:14;;;;;;;11.77;2.10;;;;;;;;;;5070551;28;20028;-42
2023/12/19 04:43:41;;;;;;;9.68;2.30;;;;;;;;;;5070876;28;20025;-43
2023/12/19 04:46:11;;;;;;;6.05;2.22;;;;;;;;;;5070856;28;20067;-40
2023/12/19 04:48:38;;;;;;;6.60;1.65;;;;;;;;;;5067830;28;20078;-42
2023/12/19 04:51:05;;;;;;;7.18;2.53;;;;;;;;;;5050112;28;20100;-39
2023/12/19 04:53:32;;;;;;;6.72;2.00;;;;;;;;;;5050730;28;20129;-41
2023/12/19 04:55:59;;;;;;;9.00;1.95;;;;;;;;;;5050607;28;20048;-43
2023/12/19 04:58:27;;;;;;;6.97;2.10;;;;;;;;;;5050765;28;20037;-43
2023/12/19 05:00:54;;;;;;;6.28;1.90;;;;;;;;;;5050253;28;20031;-42
2023/12/19 05:03:21;;;;;;;6.30;1.80;;;;;;;;;;5050479;28;20079;-39
2023/12/19 05:05:48;;;;;;;13.00;1.80;;;;;;;;;;5053131;28;20028;-36
2023/12/19 05:08:15;;;;;;;9.05;2.08;;;;;;;;;;5054398;28;20086;-40
2023/12/19 05:10:43;;;;;;;7.78;2.05;;;;;;;;;;5054206;28;20379;-38
2023/12/19 05:13:10;;;;;;;7.57;1.98;;;;;;;;;;5036260;28;20062;-40
2023/12/19 05:15:37;;;;;;;7.60;1.88;;;;;;;;;;5054087;28;20021;-38
2023/12/19 05:18:04;;;;;;;4.93;1.52;;;;;;;;;;5053885;28;20025;-38
2023/12/19 05:20:31;;;;;;;7.47;1.77;;;;;;;;;;5053957;28;20123;-35
2023/12/19 05:23:01;;;;;;;4.85;1.20;;;;;;;;;;5035703;28;20029;-32
2023/12/19 05:25:28;;;;;;;10.23;1.60;;;;;;;;;;5053899;28;20040;-34
2023/12/19 05:27:55;;;;;;;8.25;1.83;;;;;;;;;;5053658;28;20035;-33
2023/12/19 05:30:22;;;;;;;6.65;1.63;;;;;;;;;;5053929;28;20029;-40
2023/12/19 05:32:49;;;;;;;5.55;1.60;;;;;;;;;;5053607;28;20032;-38
2023/12/19 05:35:16;;;;;;;5.20;1.60;;;;;;;;;;5052581;28;20029;-41
2023/12/19 05:37:44;;;;;;;6.60;1.40;;;;;;;;;;5053713;28;20039;-42
2023/12/19 05:40:11;;;;;;;3.92;1.48;;;;;;;;;;5053667;28;20021;-40
2023/12/19 05:42:38;;;;;;;6.10;1.60;;;;;;;;;;5053304;28;20521;-37
2023/12/19 05:45:07;;;;;;;6.55;1.50;;;;;;;;;;5053664;28;20033;-41
2023/12/19 05:47:34;;;;;;;7.10;1.90;;;;;;;;;;5053379;28;20421;-41
2023/12/19 05:50:01;;;;;;;4.97;1.40;;;;;;;;;;5053405;28;20083;-41
2023/12/19 05:52:28;;;;;;;8.32;2.10;;;;;;;;;;5035192;28;20027;-36
2023/12/19 05:54:54;;;;;;;5.60;1.63;;;;;;;;;;5053368;28;20044;-42
2023/12/19 05:57:21;;;;;;;4.13;1.30;;;;;;;;;;5053387;28;20024;-37
2023/12/19 05:59:48;;;;;;;7.38;1.92;;;;;;;;;;5053175;28;20031;-41
2023/12/19 06:02:16;;;;;;;6.05;1.50;;;;;;;;;;5064539;28;20032;-37
2023/12/19 06:04:43;;;;;;;5.68;1.77;;;;;;;;;;5073144;28;20016;-41
2023/12/19 06:07:09;;;;;;;8.02;1.60;;;;;;;;;;5073190;28;20028;-41
2023/12/19 06:09:36;;;;;;;4.72;1.73;;;;;;;;;;5073182;28;20029;-38
2023/12/19 06:12:03;;;;;;;6.05;1.50;;;;;;;;;;5072915;28;20638;-39
2023/12/19 06:14:30;;;;;;;7.82;1.67;;;;;;;;;;5073258;28;20035;-37
2023/12/19 06:16:57;;;;;;;6.07;1.55;;;;;;;;;;5071995;28;20533;-36
2023/12/19 06:19:24;;;;;;;5.13;1.50;;;;;;;;;;5073008;28;20031;-35
2023/12/19 06:21:52;;;;;;;5.25;1.50;;;;;;;;;;5072532;28;20028;-38
2023/12/19 06:24:19;;;;;;;6.10;1.42;;;;;;;;;;5071420;28;20513;-37
2023/12/19 06:26:46;;;;;;;8.48;1.98;;;;;;;;;;5072528;28;20059;-38
2023/12/19 06:29:13;;;;;;;6.18;1.25;;;;;;;;;;5072755;28;20076;-36
2023/12/19 06:31:46;;;;;;;5.28;1.40;;;;;;;;;;5072657;28;20031;-36
2023/12/19 06:34:13;;;;;;;8.68;1.58;;;;;;;;;;5072189;28;20024;-33
2023/12/19 06:36:41;;;;;;;4.70;1.33;;;;;;;;;;5072530;28;20036;-41
2023/12/19 06:39:08;;;;;;;6.05;1.50;;;;;;;;;;5072424;28;20025;-41
2023/12/19 06:41:36;;;;;;;8.88;1.67;;;;;;;;;;5072362;28;20218;-40
2023/12/19 06:44:03;;;;;;;4.05;1.58;;;;;;;;;;5071405;28;20475;-33
2023/12/19 06:46:30;;;;;;;5.88;1.50;;;;;;;;;;5072400;28;20437;-40
2023/12/19 06:48:57;;;;;;;4.53;1.52;;;;;;;;;;5072375;28;20025;-39
2023/12/19 06:51:24;;;;;;;3.53;1.23;;;;;;;;;;5072475;28;20020;-41
2023/12/19 06:53:52;;;;;;;5.60;1.40;;;;;;;;;;5071810;28;20021;-38
2023/12/19 06:56:19;;;;;;;4.38;1.30;;;;;;;;;;5072030;28;20020;-38
2023/12/19 06:58:46;;;;;;;4.60;1.50;;;;;;;;;;5072298;28;20017;-42
2023/12/19 07:01:16;;;;;;;3.55;1.25;;;;;;;;;;5072172;28;20020;-41
2023/12/19 07:03:43;;;;;;;4.75;1.58;;;;;;;;;;5071529;28;20502;-40
2023/12/19 07:06:13;;;;;;;3.10;1.20;;;;;;;;;;5072024;28;20386;-36
2023/12/19 07:08:41;;;;;;;5.80;1.67;;;;;;;;;;5071979;28;20094;-39
2023/12/19 07:11:08;;;;;;;6.00;1.60;;;;;;;;;;5060485;28;20029;-39
2023/12/19 07:13:35;;;;;;;5.25;1.40;;;;;;;;;;5033550;28;20379;-41
2023/12/19 07:16:03;;;;;;;6.50;1.60;;;;;;;;;;5051632;28;20024;-41
2023/12/19 07:18:30;;;;;;;8.27;1.60;;;;;;;;;;5051541;28;20021;-35
2023/12/19 07:20:57;;;;;;;4.55;1.65;;;;;;;;;;5051632;28;20025;-35
2023/12/19 07:23:25;;;;;;;7.03;1.77;;;;;;;;;;5051458;28;20416;-39
2023/12/19 07:25:52;;;;;;;5.65;1.50;;;;;;;;;;5051485;28;20392;-39
2023/12/19 07:28:19;;;;;;;4.93;1.40;;;;;;;;;;5051444;28;20035;-40
2023/12/19 07:30:46;;;;;;;4.32;1.55;;;;;;;;;;5051786;28;20079;-38
2023/12/19 07:33:13;;;;;;;3.45;1.30;;;;;;;;;;5051343;28;20024;-38
2023/12/19 07:35:41;;;;;;;5.30;1.30;;;;;;;;;;5051528;28;20024;-43
2023/12/19 07:38:08;;;;;;;4.57;1.30;;;;;;;;;;5055361;28;20453;-39
2023/12/19 07:40:38;;;;;;;6.28;1.33;;;;;;;;;;5071403;28;20062;-39
2023/12/19 07:43:05;;;;;;;4.78;1.35;;;;;;;;;;5071267;28;20021;-37
2023/12/19 07:45:32;;;;;;;6.88;1.52;;;;;;;;;;5071076;28;20017;-40
2023/12/19 07:47:59;;;;;;;4.07;1.20;;;;;;;;;;5071251;28;20056;-41
2023/12/19 07:50:27;;;;;;;5.57;2.00;;;;;;;;;;5071457;28;20029;-39
2023/12/19 07:52:54;;;;;;;4.78;1.60;;;;;;;;;;5071412;28;20382;-40
2023/12/19 07:55:21;;;;;;;4.15;1.23;;;;;;;;;;5070836;28;20501;-39
2023/12/19 07:57:49;;;;;;;6.10;1.50;;;;;;;;;;5069866;28;20036;-40
2023/12/19 08:00:16;;;;;;;4.60;1.33;;;;;;;;;;5071346;28;20390;-38
2023/12/19 08:02:43;;;;;;;5.82;1.60;;;;;;;;;;5071150;28;20060;-39
2023/12/19 08:05:12;;;;;;;4.07;1.63;;;;;;;;;;5070991;28;20494;-37
2023/12/19 08:07:39;;;;;;;7.60;1.67;;;;;;;;;;5071164;28;20064;-40
2023/12/19 08:10:06;;;;;;;8.35;1.83;;;;;;;;;;5071032;28;20025;-41
2023/12/19 08:12:34;;;;;;;6.70;1.48;;;;;;;;;;5071222;28;20020;-35
2023/12/19 08:15:01;;;;;;;3.42;1.17;;;;;;;;;;5052667;28;20443;-37
2023/12/19 08:17:28;;;;;;;4.97;1.63;;;;;;;;;;5071339;28;20036;-39
2023/12/19 08:19:55;;;;;;;6.05;1.70;;;;;;;;;;5070724;28;20033;-40
2023/12/19 08:22:23;;;;;;;7.63;1.70;;;;;;;;;;5071048;28;20413;-36
2023/12/19 08:24:51;;;;;;;5.47;1.38;;;;;;;;;;5070563;28;20036;-41
2023/12/19 08:27:22;;;;;;;8.00;1.48;;;;;;;;;;5070933;28;20086;-36
2023/12/19 08:29:50;;;;;;;6.20;1.60;;;;;;;;;;5070979;28;20039;-41
2023/12/19 08:32:17;;;;;;;7.38;1.45;;;;;;;;;;5071110;28;20440;-34
2023/12/19 08:34:44;;;;;;;4.97;1.50;;;;;;;;;;5070577;28;20096;-38
2023/12/19 08:37:11;;;;;;;4.63;1.50;;;;;;;;;;5071051;28;20054;-38
2023/12/19 08:39:38;;;;;;;9.82;1.80;;;;;;;;;;5071881;28;20085;-41
2023/12/19 08:42:05;;;;;;;5.70;1.95;;;;;;;;;;5072872;28;20028;-39
2023/12/19 08:44:32;;;;;;;5.95;1.58;;;;;;;;;;5074319;28;20115;-39
2023/12/19 08:46:58;;;;;;;6.00;1.70;;;;;;;;;;5074682;28;20037;-36
2023/12/19 08:49:25;;;;;;;7.50;1.65;;;;;;;;;;5074796;28;20038;-36
2023/12/19 08:51:52;;;;;;;5.07;1.65;;;;;;;;;;5074629;28;20020;-38
2023/12/19 08:54:19;;;;;;;9.05;1.73;;;;;;;;;;5074348;28;20027;-41
2023/12/19 08:56:46;;;;;;;3.70;1.20;;;;;;;;;;5074494;28;20074;-41
2023/12/19 08:59:13;;;;;;;6.68;1.60;;;;;;;;;;5074414;28;20434;-37
2023/12/19 09:01:41;;;;;;;7.28;1.63;;;;;;;;;;5074501;28;20048;-37
2023/12/19 09:04:08;;;;;;;6.15;1.60;;;;;;;;;;5073999;28;20049;-36
2023/12/19 09:06:35;;;;;;;6.32;1.55;;;;;;;;;;5073976;28;20026;-39
2023/12/19 09:09:02;;;;;;;6.18;1.90;;;;;;;;;;5074454;28;20028;-41
2023/12/19 09:11:29;;;;;;;7.10;1.90;;;;;;;;;;5074374;28;20137;-36
2023/12/19 09:13:56;;;;;;;10.75;2.30;;;;;;;;;;5074141;28;20025;-37
2023/12/19 09:16:23;;;;;;;9.00;1.88;;;;;;;;;;5074078;28;20466;-40
2023/12/19 09:18:50;;;;;;;7.47;1.67;;;;;;;;;;5074272;28;20020;-36
2023/12/19 09:21:18;;;;;;;5.65;1.75;;;;;;;;;;5074126;28;20025;-41
2023/12/19 09:23:45;;;;;;;5.93;1.60;;;;;;;;;;5074124;28;20020;-36
2023/12/19 09:26:13;;;;;;;4.55;1.52;;;;;;;;;;5073575;28;20470;-39
2023/12/19 09:28:41;;;;;;;7.25;1.77;;;;;;;;;;5070884;28;20050;-40
2023/12/19 09:31:11;;;;;;;6.53;1.58;;;;;;;;;;5074003;28;20029;-36
2023/12/19 09:33:39;;;;;;;7.72;1.73;;;;;;;;;;5073906;28;20021;-36
2023/12/19 09:36:10;;;;;;;4.65;1.23;;;;;;;;;;5073404;28;20032;-41
2023/12/19 09:38:37;;;;;;;4.95;1.67;;;;;;;;;;5073549;28;20028;-43
2023/12/19 09:41:05;;;;;;;5.72;1.40;;;;;;;;;;5055482;28;20502;-42
2023/12/19 09:43:33;;;;;;;5.30;1.80;;;;;;;;;;5073619;28;20036;-39
2023/12/19 09:46:03;;;;;;;5.20;1.35;;;;;;;;;;5072969;28;20028;-39
2023/12/19 09:48:33;;;;;;;4.82;1.40;;;;;;;;;;5073352;28;20077;-40
2023/12/19 09:51:03;;;;;;;6.22;1.45;;;;;;;;;;5073152;28;20808;-38
2023/12/19 09:53:34;;;;;;;6.07;1.90;;;;;;;;;;5073591;28;20013;-36
2023/12/19 09:56:02;;;;;;;9.88;1.85;;;;;;;;;;5072815;28;20029;-39
2023/12/19 09:58:29;;;;;;;6.00;1.65;;;;;;;;;;5073389;28;20036;-37
2023/12/19 10:01:00;;;;;;;4.82;1.35;;;;;;;;;;5051884;28;20032;-36
2023/12/19 10:03:27;;;;;;;5.68;1.73;;;;;;;;;;5070976;28;20052;-38
2023/12/19 10:05:54;;;;;;;8.85;1.90;;;;;;;;;;5046942;28;20407;-37
2023/12/19 10:08:21;;;;;;;7.90;1.70;;;;;;;;;;5062907;28;20450;-39
2023/12/19 10:10:55;;;;;;;6.35;1.58;;;;;;;;;;5072944;28;20092;-39
2023/12/19 10:13:36;;;;;;;7.68;1.70;;;;;;;;;;5073114;28;20514;-38
2023/12/19 10:16:05;;;;;;;8.85;1.95;;;;;;;;;;5052008;28;20064;-36
2023/12/19 10:18:33;;;;;;;6.93;1.77;;;;;;;;;;5063119;28;20029;-37
2023/12/19 10:21:09;;;;;;;5.55;1.60;;;;;;;;;;5061270;28;20024;-37
2023/12/19 10:23:37;;;;;;;7.95;2.10;;;;;;;;;;5061294;28;20085;-41
2023/12/19 10:26:04;;;;;;;7.28;1.80;;;;;;;;;;5062278;28;20024;-35
2023/12/19 10:28:35;;;;;;;10.10;1.92;;;;;;;;;;5062571;28;20033;-37
2023/12/19 10:31:07;;;;;;;7.80;1.85;;;;;;;;;;5062516;28;20074;-38
2023/12/19 10:33:42;;;;;;;11.20;2.35;;;;;;;;;;5056379;28;20039;-36
2023/12/19 10:36:09;;;;;;;9.70;2.35;;;;;;;;;;5052062;28;20032;-41
2023/12/19 10:38:48;;;;;;;10.25;2.13;;;;;;;;;;5052603;28;20021;-40
2023/12/19 10:41:22;;;;;;;9.75;2.10;;;;;;;;;;5051165;28;20087;-44
2023/12/19 10:49:44;;;;;;;8.53;1.93;;;;;;;;;;4966438;27;3358323;-37
2023/12/19 10:52:13;;;;;;;10.35;2.22;;;;;;;;;;5065969;28;20044;-38
2023/12/19 10:54:41;;;;;;;10.75;2.25;;;;;;;;;;5069022;28;20033;-36
2023/12/19 10:57:18;;;;;;;10.55;2.40;;;;;;;;;;5068936;28;20044;-36
2023/12/19 11:00:09;;;;;;;6.75;2.42;;;;;;;;;;5068790;28;20525;-36
2023/12/19 11:02:49;;;;;;;7.22;2.03;;;;;;;;;;5068958;28;20033;-35
2023/12/19 11:05:36;;;;;;;10.77;2.38;;;;;;;;;;5068866;28;20032;-35
2023/12/19 11:08:12;;;;;;;11.80;1.88;;;;;;;;;;5067852;28;20036;-35
2023/12/19 11:10:40;;;;;;;11.52;2.53;;;;;;;;;;5067354;28;20033;-32
2023/12/19 11:13:07;;;;;;;9.50;2.08;;;;;;;;;;5067889;28;20107;-36
2023/12/19 11:15:37;;;;;;;12.75;2.60;;;;;;;;;;5065579;28;20043;-35
2023/12/19 11:18:04;;;;;;;12.45;2.33;;;;;;;;;;5062725;28;20044;-38
2023/12/19 11:20:35;;;;;;;34.50;3.50;;;;;;;;;;5029962;28;20528;-38
2023/12/19 11:23:02;;;;;;;36.30;5.63;;;;;;;;;;5068307;28;20142;-39
2023/12/19 11:25:45;;;;;;;79.00;7.90;;;;;;;;;;5067071;28;20557;-38
2023/12/19 11:28:14;;;;;;;106.43;10.80;;;;;;;;;;5068053;28;20501;-42
2023/12/19 11:30:41;;;;;;;74.85;7.50;;;;;;;;;;5064919;28;20857;-38
2023/12/19 11:33:11;;;;;;;64.80;7.68;;;;;;;;;;5068139;28;20031;-34
2023/12/19 11:35:38;;;;;;;74.72;8.45;;;;;;;;;;5067928;28;20060;-40
2023/12/19 11:38:24;;;;;;;61.17;5.97;;;;;;;;;;5067930;28;20037;-39
2023/12/19 11:40:53;;;;;;;61.83;5.90;;;;;;;;;;5065916;28;20116;-43
2023/12/19 11:43:29;;;;;;;444.38;31.35;;;;;;;;;;5066487;28;20036;-44
2023/12/19 11:46:16;;;;;;;174.82;16.17;;;;;;;;;;5067614;28;20025;-41
2023/12/19 11:48:44;;;;;;;168.70;15.38;;;;;;;;;;5067579;28;20032;-41
2023/12/19 11:51:12;;;;;;;143.05;13.52;;;;;;;;;;5066653;28;20060;-41
2023/12/19 11:53:39;;;;;;;107.30;11.25;;;;;;;;;;5066225;28;20017;-41
2023/12/19 11:56:11;;;;;;;77.60;9.63;;;;;;;;;;5067681;28;20040;-40
2023/12/19 11:58:45;;;;;;;69.80;7.93;;;;;;;;;;5066674;28;20394;-41
2023/12/19 12:01:12;;;;;;;65.28;6.90;;;;;;;;;;5052808;28;20483;-42
2023/12/19 12:03:39;;;;;;;35.10;5.45;;;;;;;;;;5052593;28;20022;-41
2023/12/19 12:06:06;;;;;;;30.38;4.57;;;;;;;;;;5054112;28;20479;-41
2023/12/19 12:08:33;;;;;;;22.75;3.25;;;;;;;;;;5054277;28;20394;-40
2023/12/19 12:11:01;;;;;;;13.35;2.83;;;;;;;;;;5054299;28;20136;-41
2023/12/19 12:13:28;;;;;;;27.05;3.65;;;;;;;;;;5054285;28;20039;-41
2023/12/19 12:15:59;;;;;;;19.88;3.20;;;;;;;;;;5054265;28;20399;-40
2023/12/19 12:18:26;;;;;;;60.05;6.85;;;;;;;;;;5054068;28;20029;-40
2023/12/19 12:20:56;;;;;;;56.90;5.55;;;;;;;;;;5053882;28;20067;-41
2023/12/19 12:23:23;;;;;;;43.30;4.75;;;;;;;;;;5035983;28;20032;-42
2023/12/19 12:25:59;;;;;;;40.95;5.60;;;;;;;;;;5054079;28;20648;-40
2023/12/19 12:28:26;;;;;;;21.40;3.38;;;;;;;;;;5053777;28;20055;-42
2023/12/19 12:30:54;;;;;;;41.85;5.07;;;;;;;;;;5053976;28;20024;-41
2023/12/19 12:33:24;;;;;;;20.02;3.40;;;;;;;;;;5053845;28;20035;-40
2023/12/19 12:35:51;;;;;;;33.55;4.45;;;;;;;;;;5053521;28;20036;-40
2023/12/19 12:38:19;;;;;;;19.85;3.75;;;;;;;;;;5053584;28;20024;-41
2023/12/19 12:40:59;;;;;;;15.55;3.40;;;;;;;;;;5053781;28;20107;-40
2023/12/19 12:43:50;;;;;;;15.80;2.58;;;;;;;;;;5053529;28;20481;-41
2023/12/19 12:46:19;;;;;;;15.48;2.90;;;;;;;;;;5052908;28;20099;-40
2023/12/19 12:48:55;;;;;;;17.02;3.40;;;;;;;;;;5053204;28;20102;-40
2023/12/19 12:51:22;;;;;;;17.27;3.05;;;;;;;;;;5053226;28;20136;-40
2023/12/19 12:53:56;;;;;;;13.60;2.58;;;;;;;;;;5053456;28;20033;-40
2023/12/19 12:56:33;;;;;;;17.70;2.97;;;;;;;;;;5053345;28;20037;-41
2023/12/19 12:59:06;;;;;;;24.13;3.47;;;;;;;;;;5053364;28;20036;-40
2023/12/19 13:01:34;;;;;;;15.57;3.22;;;;;;;;;;5053116;28;20035;-41
2023/12/19 13:04:02;;;;;;;17.55;3.08;;;;;;;;;;5053016;28;20060;-40
2023/12/19 13:06:29;;;;;;;14.77;2.40;;;;;;;;;;5053058;28;20040;-42
2023/12/19 13:08:57;;;;;;;15.80;2.45;;;;;;;;;;5053034;28;20045;-40
2023/12/19 13:11:24;;;;;;;14.50;2.92;;;;;;;;;;5052062;28;20099;-40
2023/12/19 13:13:51;;;;;;;18.27;3.13;;;;;;;;;;5053111;28;20025;-42
2023/12/19 13:16:18;;;;;;;10.27;2.78;;;;;;;;;;5053029;28;20039;-41
2023/12/19 13:18:45;;;;;;;13.73;2.75;;;;;;;;;;5052883;28;20037;-40
2023/12/19 13:21:12;;;;;;;22.00;3.13;;;;;;;;;;5052999;28;20079;-41
2023/12/19 13:23:41;;;;;;;32.42;3.70;;;;;;;;;;5052856;28;20032;-41
2023/12/19 13:26:08;;;;;;;30.13;3.53;;;;;;;;;;5052727;28;20041;-42
2023/12/19 13:28:36;;;;;;;38.30;3.90;;;;;;;;;;5052672;28;20394;-41
2023/12/19 13:31:08;;;;;;;30.05;3.35;;;;;;;;;;5052745;28;20123;-40
2023/12/19 13:33:35;;;;;;;19.77;3.20;;;;;;;;;;5052839;28;20029;-41
2023/12/19 13:36:02;;;;;;;15.32;3.00;;;;;;;;;;5052541;28;20032;-41
2023/12/19 13:38:29;;;;;;;21.55;3.20;;;;;;;;;;5052531;28;20025;-41
2023/12/19 13:40:57;;;;;;;23.98;3.78;;;;;;;;;;5052539;28;20025;-41
2023/12/19 13:43:24;;;;;;;23.70;2.80;;;;;;;;;;5052290;28;20037;-41
2023/12/19 13:45:51;;;;;;;26.55;3.33;;;;;;;;;;5052476;28;20074;-41
2023/12/19 13:48:18;;;;;;;14.95;3.10;;;;;;;;;;5052294;28;20036;-40
2023/12/19 13:50:45;;;;;;;16.50;2.72;;;;;;;;;;5030752;28;20400;-40
2023/12/19 13:53:12;;;;;;;17.73;3.38;;;;;;;;;;5032229;28;20029;-41
2023/12/19 13:55:40;;;;;;;19.67;3.30;;;;;;;;;;5032277;28;20141;-41
2023/12/19 13:58:07;;;;;;;16.65;2.92;;;;;;;;;;5032297;28;20037;-40
2023/12/19 14:00:34;;;;;;;14.27;2.95;;;;;;;;;;5032222;28;20035;-40
2023/12/19 14:03:01;;;;;;;12.77;3.00;;;;;;;;;;5032250;28;20105;-41
2023/12/19 14:05:28;;;;;;;11.25;2.95;;;;;;;;;;5032007;28;20037;-41
2023/12/19 14:08:01;;;;;;;13.35;2.78;;;;;;;;;;5025054;28;20391;-40
2023/12/19 14:10:32;;;;;;;14.68;2.75;;;;;;;;;;5032048;28;20041;-40
2023/12/19 14:13:00;;;;;;;16.52;3.03;;;;;;;;;;5030410;28;20044;-41
2023/12/19 14:15:27;;;;;;;20.92;3.08;;;;;;;;;;5031033;28;20477;-41
2023/12/19 14:17:54;;;;;;;24.52;3.45;;;;;;;;;;5031886;28;20108;-40
2023/12/19 14:20:21;;;;;;;16.83;3.15;;;;;;;;;;5031646;28;20124;-41
2023/12/19 14:22:48;;;;;;;15.45;3.05;;;;;;;;;;5031484;28;20119;-40
2023/12/19 14:25:15;;;;;;;15.25;3.03;;;;;;;;;;5031832;28;20025;-40
2023/12/19 14:27:42;;;;;;;13.05;3.30;;;;;;;;;;5031646;28;20029;-40
2023/12/19 14:30:10;;;;;;;17.70;3.10;;;;;;;;;;5031777;28;20055;-40
2023/12/19 14:32:37;;;;;;;13.43;2.75;;;;;;;;;;5031836;28;20430;-40
2023/12/19 14:35:05;;;;;;;12.13;2.45;;;;;;;;;;5014053;28;20446;-40
2023/12/19 14:37:33;;;;;;;11.63;3.13;;;;;;;;;;5031556;28;20830;-40
2023/12/19 14:40:00;;;;;;;8.82;2.70;;;;;;;;;;5031285;28;20121;-40
2023/12/19 14:42:27;;;;;;;14.57;2.60;;;;;;;;;;5031190;28;20113;-40
2023/12/19 14:44:54;;;;;;;11.48;2.53;;;;;;;;;;5029733;28;20049;-40
2023/12/19 14:47:21;;;;;;;14.80;2.95;;;;;;;;;;5030411;28;20379;-40